createdAt,value
2022-11-16T00:03:08.835Z,8.10
2022-11-16T00:08:13.924Z,8.10
2022-11-16T00:13:19.553Z,8.10
2022-11-16T00:18:25.695Z,8.10
2022-11-16T00:23:32.948Z,8.10
2022-11-16T00:28:35.342Z,8.10
2022-11-16T00:33:39.331Z,8.10
2022-11-16T00:38:42.900Z,8.00
2022-11-16T00:43:44.804Z,8.10
2022-11-16T00:48:46.903Z,8.10
2022-11-16T00:53:49.979Z,8.10
2022-11-16T00:58:57.465Z,8.10
2022-11-16T01:04:01.436Z,8.10
2022-11-16T01:09:05.827Z,8.00
2022-11-16T01:14:09.122Z,8.10
2022-11-16T01:19:11.618Z,8.00
2022-11-16T01:24:15.020Z,8.00
2022-11-16T01:29:18.072Z,8.00
2022-11-16T01:34:22.788Z,8.00
2022-11-16T01:39:26.260Z,8.00
2022-11-16T01:44:34.219Z,8.00
2022-11-16T01:49:39.808Z,7.90
2022-11-16T01:54:45.582Z,7.90
2022-11-16T01:59:48.640Z,7.90
2022-11-16T02:04:52.796Z,7.90
2022-11-16T02:10:00.257Z,7.90
2022-11-16T02:15:35.053Z,7.90
2022-11-16T02:21:06.563Z,7.90
2022-11-16T02:26:17.686Z,7.90
2022-11-16T02:31:36.021Z,7.80
2022-11-16T02:36:42.382Z,7.80
2022-11-16T02:41:46.539Z,7.80
2022-11-16T02:46:51.688Z,7.80
2022-11-16T02:51:55.544Z,7.80
2022-11-16T02:57:34.245Z,7.80
2022-11-16T03:02:45.902Z,7.80
2022-11-16T03:07:53.418Z,7.80
2022-11-16T03:12:55.384Z,7.80
2022-11-16T03:17:59.735Z,7.80
2022-11-16T03:23:04.659Z,7.80
2022-11-16T03:28:35.266Z,7.70
2022-11-16T03:39:00.950Z,7.70
2022-11-16T03:44:04.908Z,7.70
2022-11-16T03:49:06.899Z,7.70
2022-11-16T03:54:08.894Z,7.60
2022-11-16T03:59:10.892Z,7.60
2022-11-16T04:04:34.474Z,7.60
2022-11-16T04:09:54.932Z,7.60
2022-11-16T04:15:15.219Z,7.60
2022-11-16T04:20:35.789Z,7.50
2022-11-16T04:25:39.138Z,7.50
2022-11-16T04:31:04.097Z,7.50
2022-11-16T04:36:25.143Z,7.50
2022-11-16T04:41:49.522Z,7.50
2022-11-16T04:47:09.202Z,7.50
2022-11-16T04:52:11.731Z,7.50
2022-11-16T04:57:14.928Z,7.50
2022-11-16T05:02:18.907Z,7.50
2022-11-16T05:07:20.898Z,7.50
2022-11-16T05:12:28.505Z,7.50
2022-11-16T05:17:30.835Z,7.50
2022-11-16T05:22:33.252Z,7.50
2022-11-16T05:27:35.635Z,7.50
2022-11-16T05:32:41.145Z,7.50
2022-11-16T05:37:43.037Z,7.50
2022-11-16T05:42:46.760Z,7.50
2022-11-16T05:47:48.603Z,7.50
2022-11-16T05:52:51.608Z,7.50
2022-11-16T05:57:55.448Z,7.50
2022-11-16T06:02:57.795Z,7.50
2022-11-16T06:07:59.771Z,7.50
2022-11-16T06:13:02.097Z,7.50
2022-11-16T06:18:08.354Z,7.50
2022-11-16T06:23:10.973Z,7.50
2022-11-16T06:28:13.488Z,7.60
2022-11-16T06:33:16.117Z,7.60
2022-11-16T06:38:19.509Z,7.50
2022-11-16T06:43:23.241Z,7.50
2022-11-16T06:48:25.417Z,7.60
2022-11-16T06:53:29.653Z,7.60
2022-11-16T06:58:33.371Z,7.60
2022-11-16T07:03:35.699Z,7.60
2022-11-16T07:08:38.691Z,7.60
2022-11-16T07:13:42.829Z,7.60
2022-11-16T07:18:44.710Z,7.60
2022-11-16T07:23:46.615Z,7.70
2022-11-16T07:28:48.913Z,7.70
2022-11-16T07:33:51.919Z,7.70
2022-11-16T07:38:57.041Z,7.70
2022-11-16T07:44:01.118Z,7.70
2022-11-16T07:49:09.864Z,7.80
2022-11-16T07:54:15.443Z,7.80
2022-11-16T07:59:17.515Z,7.80
2022-11-16T08:04:19.352Z,7.90
2022-11-16T08:09:21.174Z,7.90
2022-11-16T08:14:24.347Z,7.90
2022-11-16T08:19:26.459Z,7.90
2022-11-16T08:24:32.667Z,7.90
2022-11-16T08:29:35.730Z,7.90
2022-11-16T08:34:37.611Z,8.00
2022-11-16T08:39:39.544Z,8.00
2022-11-16T08:44:41.648Z,8.00
2022-11-16T08:49:48.315Z,8.10
2022-11-16T08:54:51.571Z,8.10
2022-11-16T08:59:53.440Z,8.10
2022-11-16T09:04:55.550Z,8.20
2022-11-16T09:09:58.558Z,8.20
2022-11-16T09:15:00.461Z,8.20
2022-11-16T09:20:03.967Z,8.40
2022-11-16T09:25:06.616Z,8.50
2022-11-16T09:30:09.664Z,8.60
2022-11-16T09:35:11.637Z,8.60
2022-11-16T09:40:14.651Z,8.60
2022-11-16T09:45:48.073Z,8.60
2022-11-16T09:50:56.675Z,8.50
2022-11-16T09:56:17.777Z,8.50
2022-11-16T10:01:27.407Z,8.60
2022-11-16T10:06:59.075Z,8.60
2022-11-16T10:12:10.462Z,8.60
2022-11-16T10:18:04.562Z,8.70
2022-11-16T10:23:10.075Z,8.60
2022-11-16T10:28:34.399Z,8.70
2022-11-16T10:33:37.803Z,8.70
2022-11-16T10:38:40.499Z,8.70
2022-11-16T10:43:43.387Z,8.70
2022-11-16T10:49:28.518Z,8.70
2022-11-16T10:54:30.622Z,8.70
2022-11-16T10:59:41.039Z,8.60
2022-11-16T11:05:02.387Z,8.70
2022-11-16T11:10:22.525Z,8.70
2022-11-16T11:15:29.998Z,8.70
2022-11-16T11:20:31.893Z,8.70
2022-11-16T11:25:36.974Z,8.70
2022-11-16T11:30:39.393Z,8.70
2022-11-16T11:35:43.039Z,8.70
2022-11-16T11:40:57.642Z,8.80
2022-11-16T11:46:14.583Z,8.80
2022-11-16T11:51:24.346Z,8.80
2022-11-16T11:56:34.187Z,8.80
2022-11-16T12:01:56.150Z,8.80
2022-11-16T12:07:20.076Z,8.80
2022-11-16T12:12:37.713Z,8.80
2022-11-16T12:18:05.415Z,8.90
2022-11-16T12:23:22.689Z,8.90
2022-11-16T12:29:03.542Z,8.90
2022-11-16T12:34:20.097Z,8.90
2022-11-16T12:39:28.249Z,9.00
2022-11-16T12:45:04.212Z,9.00
2022-11-16T12:50:16.585Z,9.00
2022-11-16T12:55:25.805Z,9.00
2022-11-16T13:00:29.214Z,8.90
2022-11-16T13:05:42.893Z,8.90
2022-11-16T13:10:47.050Z,8.90
2022-11-16T13:15:49.470Z,8.90
2022-11-16T13:20:57.358Z,8.90
2022-11-16T13:26:27.575Z,8.90
2022-11-16T13:31:42.604Z,8.90
2022-11-16T13:36:46.226Z,8.90
2022-11-16T13:41:51.812Z,8.90
2022-11-16T13:47:04.677Z,8.90
2022-11-16T13:52:46.858Z,8.90
2022-11-16T13:57:35.965Z,8.80
2022-11-16T14:02:45.147Z,8.80
2022-11-16T14:07:49.510Z,8.80
2022-11-16T14:12:55.014Z,8.80
2022-11-16T14:18:08.678Z,8.80
2022-11-16T14:23:25.888Z,8.80
2022-11-16T14:29:03.180Z,8.80
2022-11-16T14:34:17.709Z,8.70
2022-11-16T14:39:40.744Z,8.70
2022-11-16T14:44:43.625Z,8.70
2022-11-16T14:49:47.144Z,8.80
2022-11-16T14:54:57.707Z,8.70
2022-11-16T15:00:23.514Z,8.80
2022-11-16T15:05:30.757Z,8.70
2022-11-16T15:10:32.666Z,8.70
2022-11-16T15:15:34.529Z,8.70
2022-11-16T15:20:38.456Z,8.70
2022-11-16T15:25:40.975Z,8.60
2022-11-16T15:30:46.358Z,8.60
2022-11-16T15:35:48.260Z,8.60
2022-11-16T15:41:05.801Z,8.60
2022-11-16T15:46:08.490Z,8.60
2022-11-16T15:51:23.232Z,8.50
2022-11-16T15:56:27.182Z,8.50
2022-11-16T16:01:30.168Z,8.50
2022-11-16T16:06:57.234Z,8.60
2022-11-16T16:12:24.698Z,8.50
2022-11-16T16:17:28.735Z,8.50
2022-11-16T16:22:33.129Z,8.50
2022-11-16T16:27:41.522Z,8.50
2022-11-16T16:32:48.942Z,8.50
2022-11-16T16:37:59.561Z,8.50
2022-11-16T16:43:01.983Z,8.50
2022-11-16T16:48:05.701Z,8.50
2022-11-16T16:53:13.532Z,8.50
2022-11-16T16:58:20.602Z,8.50
2022-11-16T17:03:23.630Z,8.50
2022-11-16T17:08:26.531Z,8.50
2022-11-16T17:13:31.836Z,8.40
2022-11-16T17:18:35.889Z,8.40
2022-11-16T17:23:40.413Z,8.40
2022-11-16T17:28:42.531Z,8.40
2022-11-16T17:33:45.956Z,8.40
2022-11-16T17:38:48.099Z,8.40
2022-11-16T17:43:57.320Z,8.40
2022-11-16T17:49:00.060Z,8.40
2022-11-16T17:54:11.436Z,8.40
2022-11-16T17:59:17.596Z,8.40
2022-11-16T18:04:19.530Z,8.40
2022-11-16T18:09:23.510Z,8.30
2022-11-16T18:14:26.310Z,8.30
2022-11-16T18:19:28.287Z,8.30
2022-11-16T18:24:30.761Z,8.30
2022-11-16T18:29:32.892Z,8.30
2022-11-16T18:34:34.762Z,8.30
2022-11-16T18:39:36.632Z,8.20
2022-11-16T18:44:38.482Z,8.20
2022-11-16T18:49:41.406Z,8.20
2022-11-16T18:54:43.263Z,8.20
2022-11-16T18:59:45.536Z,8.20
2022-11-16T19:04:47.542Z,8.30
2022-11-16T19:09:49.444Z,8.30
2022-11-16T19:14:51.325Z,8.20
2022-11-16T19:19:53.483Z,8.30
2022-11-16T19:24:57.323Z,8.30
2022-11-16T19:30:01.374Z,8.30
2022-11-16T19:35:03.477Z,8.30
2022-11-16T19:40:05.920Z,8.20
2022-11-16T19:45:08.619Z,8.20
2022-11-16T19:50:11.893Z,8.20
2022-11-16T19:55:30.076Z,8.20
2022-11-16T20:00:32.055Z,8.10
2022-11-16T20:05:34.202Z,8.10
2022-11-16T20:10:36.032Z,8.10
2022-11-16T20:15:37.834Z,8.10
2022-11-16T20:20:39.834Z,8.10
2022-11-16T20:25:41.670Z,8.10
2022-11-16T20:30:47.380Z,8.10
2022-11-16T20:35:49.287Z,8.10
2022-11-16T20:40:51.458Z,8.10
2022-11-16T20:45:53.620Z,8.10
2022-11-16T20:50:55.643Z,8.10
2022-11-16T20:55:57.686Z,8.10
2022-11-16T21:01:07.597Z,8.10
2022-11-16T21:06:09.651Z,8.10
2022-11-16T21:11:13.311Z,8.00
2022-11-16T21:16:16.385Z,8.00
2022-11-16T21:21:18.364Z,8.00
2022-11-16T21:26:24.681Z,8.00
2022-11-16T21:31:31.577Z,8.00
2022-11-16T21:36:33.979Z,8.00
2022-11-16T21:41:35.871Z,7.90
2022-11-16T21:46:37.726Z,7.90
2022-11-16T21:51:39.639Z,7.90
2022-11-16T21:56:41.507Z,7.80
2022-11-16T22:02:01.583Z,7.80
2022-11-16T22:07:22.179Z,7.80
2022-11-16T22:12:24.136Z,7.80
2022-11-16T22:17:26.246Z,7.80
2022-11-16T22:22:28.097Z,7.70
2022-11-16T22:27:30.145Z,7.70
2022-11-16T22:32:31.959Z,7.60
2022-11-16T22:37:33.922Z,7.60
2022-11-16T22:42:35.730Z,7.50
2022-11-16T22:47:37.626Z,7.50
2022-11-16T22:52:39.478Z,7.50
2022-11-16T22:57:41.345Z,7.60
2022-11-16T23:02:43.192Z,7.60
2022-11-16T23:07:45.236Z,7.60
2022-11-16T23:13:05.502Z,7.60
2022-11-16T23:18:07.351Z,7.60
2022-11-16T23:23:37.543Z,7.70
2022-11-16T23:28:39.474Z,7.70
2022-11-16T23:33:44.086Z,7.70
2022-11-16T23:38:45.946Z,7.80
2022-11-16T23:43:59.910Z,7.80
2022-11-16T23:49:02.144Z,7.80
2022-11-16T23:54:04.840Z,7.80
2022-11-16T23:59:06.703Z,7.80
